Terminal Aerodrome Forecast
Issued by NWS

Home | Current Version | Previous Version | Text Only | Print | Product List | Glossary On
Versions: 1 2 3 4 5 6 7 8 9 10 11 12 13 14 15 16 17 18 19 20 21 22 23 24 25 26 27 28 29 30 31 32 33 34 35 36 37 38 39 40 41 42
000
FTUS45 KGJT 270539
TAFDRO
TAF
KDRO 270539Z 2706/2806 05003KT 3SM -SN BR SCT012 OVC022
      TEMPO 2706/2707 1SM -SN BR BKN012 OVC022
     FM270700 05003KT P6SM VCSH SCT015 BKN025 OVC040
      TEMPO 2707/2711 4SM -SN BR BKN015 OVC025
     FM271200 08003KT P6SM VCSH FEW025 OVC045
     FM280000 VRB04KT 1 1/2SM -SN BR OVC025=

USA.gov is the U.S. government's official web portal to all federal, state and local government web resources and services.